sensor_id;sensor_type;location;lat;lon;timestamp;P1;P2;P0
45312;PMS7003;68267;51.540;5.854;2023-03-01T00:10:04;11.77;13.96;12.44
45312;PMS7003;68267;51.540;5.854;2023-03-01T00:23:24;12.61;14.72;13.85
45312;PMS7003;68267;51.540;5.854;2023-03-01T00:36:43;12.25;14.4;13.74
45312;PMS7003;68267;51.540;5.854;2023-03-01T00:50:03;11.77;13.96;12.33
45312;PMS7003;68267;51.540;5.854;2023-03-01T01:03:23;11.77;13.96;12.44
45312;PMS7003;68267;51.540;5.854;2023-03-01T01:16:42;11.05;12.22;11.24
45312;PMS7003;68267;51.540;5.854;2023-03-01T01:30:02;11.53;13.74;12.65
45312;PMS7003;68267;51.540;5.854;2023-03-01T01:43:22;11.05;13.31;12.44
45312;PMS7003;68267;51.540;5.854;2023-03-01T01:56:41;10.45;12.76;11.35
45312;PMS7003;68267;51.540;5.854;2023-03-01T02:10:01;10.57;12.87;11.89
45312;PMS7003;68267;51.540;5.854;2023-03-01T02:23:20;10.93;13.2;12.0
45312;PMS7003;68267;51.540;5.854;2023-03-01T02:36:40;15.25;17.12;15.71
45312;PMS7003;68267;51.540;5.854;2023-03-01T02:50:00;11.89;14.07;12.76
45312;PMS7003;68267;51.540;5.854;2023-03-01T03:03:19;11.53;12.11;10.91
45312;PMS7003;68267;51.540;5.854;2023-03-01T03:16:39;10.33;12.65;11.35
45312;PMS7003;68267;51.540;5.854;2023-03-01T03:29:59;10.33;12.65;11.24
45312;PMS7003;68267;51.540;5.854;2023-03-01T03:43:19;12.61;12.87;11.24
45312;PMS7003;68267;51.540;5.854;2023-03-01T03:56:38;11.05;13.31;11.13
45312;PMS7003;68267;51.540;5.854;2023-03-01T04:09:58;11.17;13.42;11.45
45312;PMS7003;68267;51.540;5.854;2023-03-01T04:23:17;11.41;13.63;12.44
45312;PMS7003;68267;51.540;5.854;2023-03-01T04:36:37;12.85;13.53;12.11
45312;PMS7003;68267;51.540;5.854;2023-03-01T04:49:57;12.25;14.4;13.09
45312;PMS7003;68267;51.540;5.854;2023-03-01T05:03:16;12.25;14.4;13.09
45312;PMS7003;68267;51.540;5.854;2023-03-01T05:16:36;12.61;14.07;12.44
45312;PMS7003;68267;51.540;5.854;2023-03-01T05:29:55;11.41;13.63;12.0
45312;PMS7003;68267;51.540;5.854;2023-03-01T05:43:15;12.25;14.4;12.76
45312;PMS7003;68267;51.540;5.854;2023-03-01T05:56:35;11.05;13.31;12.11
45312;PMS7003;68267;51.540;5.854;2023-03-01T06:09:54;16.09;17.89;15.27
45312;PMS7003;68267;51.540;5.854;2023-03-01T06:23:14;12.25;14.4;13.09
45312;PMS7003;68267;51.540;5.854;2023-03-01T06:36:33;12.13;14.29;12.65
45312;PMS7003;68267;51.540;5.854;2023-03-01T06:49:53;12.73;14.83;13.09
45312;PMS7003;68267;51.540;5.854;2023-03-01T07:03:13;15.37;17.23;16.14
45312;PMS7003;68267;51.540;5.854;2023-03-01T07:16:32;16.21;17.99;16.25
45312;PMS7003;68267;51.540;5.854;2023-03-01T07:29:52;14.77;16.14;14.72
45312;PMS7003;68267;51.540;5.854;2023-03-01T07:43:12;11.05;13.31;12.44
45312;PMS7003;68267;51.540;5.854;2023-03-01T07:56:31;12.25;14.4;13.42
45312;PMS7003;68267;51.540;5.854;2023-03-01T08:09:51;12.13;14.29;13.53
45312;PMS7003;68267;51.540;5.854;2023-03-01T08:23:11;11.77;12.87;12.33
45312;PMS7003;68267;51.540;5.854;2023-03-01T08:36:30;10.57;12.87;11.89
45312;PMS7003;68267;51.540;5.854;2023-03-01T08:49:50;12.13;11.78;10.8
45312;PMS7003;68267;51.540;5.854;2023-03-01T09:03:10;8.65;11.13;10.47
45312;PMS7003;68267;51.540;5.854;2023-03-01T09:16:29;8.53;11.02;10.26
45312;PMS7003;68267;51.540;5.854;2023-03-01T09:29:49;10.33;10.47;9.93
45312;PMS7003;68267;51.540;5.854;2023-03-01T09:43:08;8.89;10.69;10.36
45312;PMS7003;68267;51.540;5.854;2023-03-01T09:56:28;9.61;12.0;11.02
45312;PMS7003;68267;51.540;5.854;2023-03-01T10:09:48;11.53;12.54;11.56
45312;PMS7003;68267;51.540;5.854;2023-03-01T10:23:07;9.73;12.11;11.56
45312;PMS7003;68267;51.540;5.854;2023-03-01T10:36:27;7.57;10.15;9.38
45312;PMS7003;68267;51.540;5.854;2023-03-01T10:49:47;10.33;10.36;9.49
45312;PMS7003;68267;51.540;5.854;2023-03-01T11:03:06;7.81;10.36;9.6
45312;PMS7003;68267;51.540;5.854;2023-03-01T11:16:26;7.09;9.71;8.84
45312;PMS7003;68267;51.540;5.854;2023-03-01T11:29:46;6.61;9.27;8.84
45312;PMS7003;68267;51.540;5.854;2023-03-01T11:43:05;6.25;8.95;8.62
45312;PMS7003;68267;51.540;5.854;2023-03-01T11:56:25;6.73;9.38;8.62
45312;PMS7003;68267;51.540;5.854;2023-03-01T12:09:44;6.37;9.06;8.62
45312;PMS7003;68267;51.540;5.854;2023-03-01T12:23:04;6.37;9.06;8.62
45312;PMS7003;68267;51.540;5.854;2023-03-01T12:36:24;6.97;9.6;8.84
45312;PMS7003;68267;51.540;5.854;2023-03-01T12:49:43;5.77;8.51;8.08
45312;PMS7003;68267;51.540;5.854;2023-03-01T13:03:03;6.13;8.84;8.62
45312;PMS7003;68267;51.540;5.854;2023-03-01T13:16:23;6.25;8.95;8.29
45312;PMS7003;68267;51.540;5.854;2023-03-01T13:29:42;5.65;8.4;8.29
45312;PMS7003;68267;51.540;5.854;2023-03-01T13:43:02;6.61;9.27;8.84
45312;PMS7003;68267;51.540;5.854;2023-03-01T13:56:21;8.41;8.84;8.51
45312;PMS7003;68267;51.540;5.854;2023-03-01T14:09:41;6.61;9.27;8.84
45312;PMS7003;68267;51.540;5.854;2023-03-01T14:23:01;7.33;9.93;9.06
45312;PMS7003;68267;51.540;5.854;2023-03-01T14:36:20;7.81;10.36;9.49
45312;PMS7003;68267;51.540;5.854;2023-03-01T14:49:40;13.33;10.47;9.27
45312;PMS7003;68267;51.540;5.854;2023-03-01T15:03:00;10.45;10.36;9.6
45312;PMS7003;68267;51.540;5.854;2023-03-01T15:16:19;7.45;10.04;9.27
45312;PMS7003;68267;51.540;5.854;2023-03-01T15:29:39;9.49;10.47;9.49
45312;PMS7003;68267;51.540;5.854;2023-03-01T15:42:58;8.89;11.35;10.36
45312;PMS7003;68267;51.540;5.854;2023-03-01T15:56:18;7.45;10.04;8.95
45312;PMS7003;68267;51.540;5.854;2023-03-01T16:09:38;6.97;9.6;8.95
45312;PMS7003;68267;51.540;5.854;2023-03-01T16:22:57;7.09;9.71;8.84
45312;PMS7003;68267;51.540;5.854;2023-03-01T16:36:17;7.09;9.71;8.95
45312;PMS7003;68267;51.540;5.854;2023-03-01T16:49:37;9.01;11.45;9.82
45312;PMS7003;68267;51.540;5.854;2023-03-01T17:02:56;7.93;10.47;9.82
45312;PMS7003;68267;51.540;5.854;2023-03-01T17:16:16;9.01;10.69;9.6
45312;PMS7003;68267;51.540;5.854;2023-03-01T17:29:35;10.57;10.91;10.04
45312;PMS7003;68267;51.540;5.854;2023-03-01T17:42:55;10.21;12.54;10.36
45312;PMS7003;68267;51.540;5.854;2023-03-01T17:56:15;9.01;11.45;10.15
45312;PMS7003;68267;51.540;5.854;2023-03-01T18:09:34;8.89;11.35;10.15
45312;PMS7003;68267;51.540;5.854;2023-03-01T18:22:54;9.49;11.35;10.91
45312;PMS7003;68267;51.540;5.854;2023-03-01T18:36:13;11.05;11.24;10.26
45312;PMS7003;68267;51.540;5.854;2023-03-01T18:49:33;10.33;11.35;10.58
45312;PMS7003;68267;51.540;5.854;2023-03-01T19:02:53;9.13;11.56;10.36
45312;PMS7003;68267;51.540;5.854;2023-03-01T19:16:12;9.61;12.0;10.69
45312;PMS7003;68267;51.540;5.854;2023-03-01T19:29:32;9.13;11.56;10.91
45312;PMS7003;68267;51.540;5.854;2023-03-01T19:42:52;8.65;11.13;10.36
45312;PMS7003;68267;51.540;5.854;2023-03-01T19:56:11;8.77;11.24;10.36
45312;PMS7003;68267;51.540;5.854;2023-03-01T20:09:31;8.53;11.02;10.26
45312;PMS7003;68267;51.540;5.854;2023-03-01T20:22:51;9.61;10.69;9.93
45312;PMS7003;68267;51.540;5.854;2023-03-01T20:36:10;13.93;11.35;10.15
45312;PMS7003;68267;51.540;5.854;2023-03-01T20:49:30;9.25;11.67;11.02
45312;PMS7003;68267;51.540;5.854;2023-03-01T21:02:49;8.77;11.24;10.04
45312;PMS7003;68267;51.540;5.854;2023-03-01T21:16:09;9.73;12.11;10.69
45312;PMS7003;68267;51.540;5.854;2023-03-01T21:29:29;12.49;12.98;12.11
45312;PMS7003;68267;51.540;5.854;2023-03-01T21:42:48;9.49;11.89;10.58
45312;PMS7003;68267;51.540;5.854;2023-03-01T21:56:08;9.97;12.33;11.45
45312;PMS7003;68267;51.540;5.854;2023-03-01T22:09:28;9.13;11.56;11.02
45312;PMS7003;68267;51.540;5.854;2023-03-01T22:22:47;9.49;10.26;9.49
45312;PMS7003;68267;51.540;5.854;2023-03-01T22:36:07;10.45;11.56;10.15
45312;PMS7003;68267;51.540;5.854;2023-03-01T22:49:26;7.57;10.15;9.17
45312;PMS7003;68267;51.540;5.854;2023-03-01T23:02:46;7.33;9.93;9.17
45312;PMS7003;68267;51.540;5.854;2023-03-01T23:16:06;8.05;10.58;9.71
45312;PMS7003;68267;51.540;5.854;2023-03-01T23:29:25;8.29;10.8;9.93
45312;PMS7003;68267;51.540;5.854;2023-03-01T23:42:45;6.49;9.17;8.62
45312;PMS7003;68267;51.540;5.854;2023-03-01T23:56:05;6.13;8.84;8.51
